sensor_id;sensor_type;location;lat;lon;timestamp;temperature;humidity
57652;DHT22;43480;53.116;6.734;2023-04-25T00:00:12;6.80;99.90
57652;DHT22;43480;53.116;6.734;2023-04-25T00:02:37;6.90;99.90
57652;DHT22;43480;53.116;6.734;2023-04-25T00:05:03;6.90;99.90
57652;DHT22;43480;53.116;6.734;2023-04-25T00:07:30;6.90;99.90
57652;DHT22;43480;53.116;6.734;2023-04-25T00:09:56;6.90;99.90
57652;DHT22;43480;53.116;6.734;2023-04-25T00:12:22;6.90;99.90
57652;DHT22;43480;53.116;6.734;2023-04-25T00:14:48;6.90;99.90
57652;DHT22;43480;53.116;6.734;2023-04-25T00:17:15;6.90;99.90
57652;DHT22;43480;53.116;6.734;2023-04-25T00:19:42;6.90;99.90
57652;DHT22;43480;53.116;6.734;2023-04-25T00:22:10;6.90;99.90
57652;DHT22;43480;53.116;6.734;2023-04-25T00:24:36;6.90;99.90
57652;DHT22;43480;53.116;6.734;2023-04-25T00:27:01;6.90;99.90
57652;DHT22;43480;53.116;6.734;2023-04-25T00:29:27;6.90;99.90
57652;DHT22;43480;53.116;6.734;2023-04-25T00:31:52;6.90;99.90
57652;DHT22;43480;53.116;6.734;2023-04-25T00:34:18;6.80;99.90
57652;DHT22;43480;53.116;6.734;2023-04-25T00:36:44;6.90;99.90
57652;DHT22;43480;53.116;6.734;2023-04-25T00:39:10;6.90;99.90
57652;DHT22;43480;53.116;6.734;2023-04-25T00:41:37;6.90;99.90
57652;DHT22;43480;53.116;6.734;2023-04-25T00:44:04;6.90;99.90
57652;DHT22;43480;53.116;6.734;2023-04-25T00:46:31;6.90;99.90
57652;DHT22;43480;53.116;6.734;2023-04-25T00:48:56;6.90;99.90
57652;DHT22;43480;53.116;6.734;2023-04-25T00:51:22;6.80;99.90
57652;DHT22;43480;53.116;6.734;2023-04-25T00:53:49;6.70;99.90
57652;DHT22;43480;53.116;6.734;2023-04-25T00:56:16;6.50;99.90
57652;DHT22;43480;53.116;6.734;2023-04-25T00:58:42;6.30;99.90
57652;DHT22;43480;53.116;6.734;2023-04-25T01:01:08;6.20;99.90
57652;DHT22;43480;53.116;6.734;2023-04-25T01:03:37;6.10;99.90
57652;DHT22;43480;53.116;6.734;2023-04-25T01:06:07;6.10;99.90
57652;DHT22;43480;53.116;6.734;2023-04-25T01:08:34;6.10;99.90
57652;DHT22;43480;53.116;6.734;2023-04-25T01:10:59;6.10;99.90
57652;DHT22;43480;53.116;6.734;2023-04-25T01:13:25;6.10;99.90
57652;DHT22;43480;53.116;6.734;2023-04-25T01:15:51;6.10;99.90
57652;DHT22;43480;53.116;6.734;2023-04-25T01:18:16;6.20;99.90
57652;DHT22;43480;53.116;6.734;2023-04-25T01:20:43;6.20;99.90
57652;DHT22;43480;53.116;6.734;2023-04-25T01:23:09;6.20;99.90
57652;DHT22;43480;53.116;6.734;2023-04-25T01:25:35;6.20;99.90
57652;DHT22;43480;53.116;6.734;2023-04-25T01:28:01;6.30;99.90
57652;DHT22;43480;53.116;6.734;2023-04-25T01:30:27;6.30;99.90
57652;DHT22;43480;53.116;6.734;2023-04-25T01:32:55;6.30;99.90
57652;DHT22;43480;53.116;6.734;2023-04-25T01:35:21;6.40;99.90
57652;DHT22;43480;53.116;6.734;2023-04-25T01:37:49;6.40;99.90
57652;DHT22;43480;53.116;6.734;2023-04-25T01:40:15;6.50;99.90
57652;DHT22;43480;53.116;6.734;2023-04-25T01:42:42;6.50;99.90
57652;DHT22;43480;53.116;6.734;2023-04-25T01:45:09;6.50;99.90
57652;DHT22;43480;53.116;6.734;2023-04-25T01:47:36;6.50;99.90
57652;DHT22;43480;53.116;6.734;2023-04-25T01:50:04;6.50;99.90
57652;DHT22;43480;53.116;6.734;2023-04-25T01:52:30;6.50;99.90
57652;DHT22;43480;53.116;6.734;2023-04-25T01:54:57;6.50;99.90
57652;DHT22;43480;53.116;6.734;2023-04-25T01:57:22;6.50;99.90
57652;DHT22;43480;53.116;6.734;2023-04-25T01:59:49;6.50;99.90
57652;DHT22;43480;53.116;6.734;2023-04-25T02:02:15;6.50;99.90
57652;DHT22;43480;53.116;6.734;2023-04-25T02:04:41;6.50;99.90
57652;DHT22;43480;53.116;6.734;2023-04-25T02:07:06;6.50;99.90
57652;DHT22;43480;53.116;6.734;2023-04-25T02:09:32;6.50;99.90
57652;DHT22;43480;53.116;6.734;2023-04-25T02:11:58;6.50;99.90
57652;DHT22;43480;53.116;6.734;2023-04-25T02:14:23;6.50;99.90
57652;DHT22;43480;53.116;6.734;2023-04-25T02:16:49;6.50;99.90
57652;DHT22;43480;53.116;6.734;2023-04-25T02:19:16;6.50;99.90
57652;DHT22;43480;53.116;6.734;2023-04-25T02:21:42;6.40;99.90
57652;DHT22;43480;53.116;6.734;2023-04-25T02:24:08;6.40;99.90
57652;DHT22;43480;53.116;6.734;2023-04-25T02:26:33;6.50;99.90
57652;DHT22;43480;53.116;6.734;2023-04-25T02:28:59;6.40;99.90
57652;DHT22;43480;53.116;6.734;2023-04-25T02:31:25;6.30;99.90
57652;DHT22;43480;53.116;6.734;2023-04-25T02:33:51;6.20;99.90
57652;DHT22;43480;53.116;6.734;2023-04-25T02:36:17;6.10;99.90
57652;DHT22;43480;53.116;6.734;2023-04-25T02:38:42;6.10;99.90
57652;DHT22;43480;53.116;6.734;2023-04-25T02:41:08;6.10;99.90
57652;DHT22;43480;53.116;6.734;2023-04-25T02:43:34;6.10;99.90
57652;DHT22;43480;53.116;6.734;2023-04-25T02:45:59;6.10;99.90
57652;DHT22;43480;53.116;6.734;2023-04-25T02:48:25;6.10;99.90
57652;DHT22;43480;53.116;6.734;2023-04-25T02:50:50;6.10;99.90
57652;DHT22;43480;53.116;6.734;2023-04-25T02:53:16;6.10;99.90
57652;DHT22;43480;53.116;6.734;2023-04-25T02:55:42;6.10;99.90
57652;DHT22;43480;53.116;6.734;2023-04-25T02:58:07;6.20;99.90
57652;DHT22;43480;53.116;6.734;2023-04-25T03:00:33;6.20;99.90
57652;DHT22;43480;53.116;6.734;2023-04-25T03:02:58;6.20;99.90
57652;DHT22;43480;53.116;6.734;2023-04-25T03:05:24;6.10;99.90
57652;DHT22;43480;53.116;6.734;2023-04-25T03:07:50;6.10;99.90
57652;DHT22;43480;53.116;6.734;2023-04-25T03:10:15;6.10;99.90
57652;DHT22;43480;53.116;6.734;2023-04-25T03:12:41;6.10;99.90
57652;DHT22;43480;53.116;6.734;2023-04-25T03:15:07;6.10;99.90
57652;DHT22;43480;53.116;6.734;2023-04-25T03:17:33;6.10;99.90
57652;DHT22;43480;53.116;6.734;2023-04-25T03:19:58;6.00;99.90
57652;DHT22;43480;53.116;6.734;2023-04-25T03:22:24;6.00;99.90
57652;DHT22;43480;53.116;6.734;2023-04-25T03:24:50;6.00;99.90
57652;DHT22;43480;53.116;6.734;2023-04-25T03:27:16;6.00;99.90
57652;DHT22;43480;53.116;6.734;2023-04-25T03:29:42;5.90;99.90
57652;DHT22;43480;53.116;6.734;2023-04-25T03:32:07;5.90;99.90
57652;DHT22;43480;53.116;6.734;2023-04-25T03:34:33;5.90;99.90
57652;DHT22;43480;53.116;6.734;2023-04-25T03:36:59;5.90;99.90
57652;DHT22;43480;53.116;6.734;2023-04-25T03:39:25;5.90;99.90
57652;DHT22;43480;53.116;6.734;2023-04-25T03:41:51;5.90;99.90
57652;DHT22;43480;53.116;6.734;2023-04-25T03:44:16;5.90;99.90
57652;DHT22;43480;53.116;6.734;2023-04-25T03:46:42;5.90;99.90
57652;DHT22;43480;53.116;6.734;2023-04-25T03:49:07;5.80;99.90
57652;DHT22;43480;53.116;6.734;2023-04-25T03:51:33;5.80;99.90
57652;DHT22;43480;53.116;6.734;2023-04-25T03:53:59;5.80;99.90
57652;DHT22;43480;53.116;6.734;2023-04-25T03:56:24;5.70;99.90
57652;DHT22;43480;53.116;6.734;2023-04-25T03:58:50;5.70;99.90
57652;DHT22;43480;53.116;6.734;2023-04-25T04:01:16;5.60;99.90
57652;DHT22;43480;53.116;6.734;2023-04-25T04:03:41;5.50;99.90
57652;DHT22;43480;53.116;6.734;2023-04-25T04:06:07;5.50;99.90
57652;DHT22;43480;53.116;6.734;2023-04-25T04:08:34;5.50;99.90
57652;DHT22;43480;53.116;6.734;2023-04-25T04:11:00;5.50;99.90
57652;DHT22;43480;53.116;6.734;2023-04-25T04:13:29;5.50;99.90
57652;DHT22;43480;53.116;6.734;2023-04-25T04:15:55;5.40;99.90
57652;DHT22;43480;53.116;6.734;2023-04-25T04:18:21;5.40;99.90
57652;DHT22;43480;53.116;6.734;2023-04-25T04:20:47;5.40;99.90
57652;DHT22;43480;53.116;6.734;2023-04-25T04:23:13;5.30;99.90
57652;DHT22;43480;53.116;6.734;2023-04-25T04:25:39;5.30;99.90
57652;DHT22;43480;53.116;6.734;2023-04-25T04:28:06;5.20;99.90
57652;DHT22;43480;53.116;6.734;2023-04-25T04:30:33;5.10;99.90
57652;DHT22;43480;53.116;6.734;2023-04-25T04:33:02;5.10;99.90
57652;DHT22;43480;53.116;6.734;2023-04-25T04:35:28;5.00;99.90
57652;DHT22;43480;53.116;6.734;2023-04-25T04:37:53;4.90;99.90
57652;DHT22;43480;53.116;6.734;2023-04-25T04:40:21;4.90;99.90
57652;DHT22;43480;53.116;6.734;2023-04-25T04:42:47;4.90;99.90
57652;DHT22;43480;53.116;6.734;2023-04-25T04:45:13;4.90;99.90
57652;DHT22;43480;53.116;6.734;2023-04-25T04:47:39;4.90;99.90
57652;DHT22;43480;53.116;6.734;2023-04-25T04:50:09;4.90;99.90
57652;DHT22;43480;53.116;6.734;2023-04-25T04:52:36;4.90;99.90
57652;DHT22;43480;53.116;6.734;2023-04-25T04:55:03;4.90;99.90
57652;DHT22;43480;53.116;6.734;2023-04-25T04:57:29;4.90;99.90
57652;DHT22;43480;53.116;6.734;2023-04-25T04:59:55;4.90;99.90
57652;DHT22;43480;53.116;6.734;2023-04-25T05:02:20;4.90;99.90
57652;DHT22;43480;53.116;6.734;2023-04-25T05:04:46;4.90;99.90
57652;DHT22;43480;53.116;6.734;2023-04-25T05:07:12;4.90;99.90
57652;DHT22;43480;53.116;6.734;2023-04-25T05:09:38;5.00;99.90
57652;DHT22;43480;53.116;6.734;2023-04-25T05:12:04;5.00;99.90
57652;DHT22;43480;53.116;6.734;2023-04-25T05:14:30;5.10;99.90
57652;DHT22;43480;53.116;6.734;2023-04-25T05:16:56;5.30;99.90
57652;DHT22;43480;53.116;6.734;2023-04-25T05:19:21;5.30;99.90
57652;DHT22;43480;53.116;6.734;2023-04-25T05:21:47;5.40;99.90
57652;DHT22;43480;53.116;6.734;2023-04-25T05:24:12;5.50;99.90
57652;DHT22;43480;53.116;6.734;2023-04-25T05:26:38;5.60;99.90
57652;DHT22;43480;53.116;6.734;2023-04-25T05:29:04;5.60;99.90
57652;DHT22;43480;53.116;6.734;2023-04-25T05:31:31;5.40;99.90
57652;DHT22;43480;53.116;6.734;2023-04-25T05:33:57;5.10;99.90
57652;DHT22;43480;53.116;6.734;2023-04-25T05:36:22;4.80;99.90
57652;DHT22;43480;53.116;6.734;2023-04-25T05:38:48;4.60;99.90
57652;DHT22;43480;53.116;6.734;2023-04-25T05:41:14;4.50;99.90
57652;DHT22;43480;53.116;6.734;2023-04-25T05:43:39;4.50;99.90
57652;DHT22;43480;53.116;6.734;2023-04-25T05:46:10;4.50;99.90
57652;DHT22;43480;53.116;6.734;2023-04-25T05:48:37;4.50;99.90
57652;DHT22;43480;53.116;6.734;2023-04-25T05:51:03;4.60;99.90
57652;DHT22;43480;53.116;6.734;2023-04-25T05:53:28;4.60;99.90
57652;DHT22;43480;53.116;6.734;2023-04-25T05:55:54;4.70;99.90
57652;DHT22;43480;53.116;6.734;2023-04-25T05:58:19;4.70;99.90
57652;DHT22;43480;53.116;6.734;2023-04-25T06:00:45;4.80;99.90
57652;DHT22;43480;53.116;6.734;2023-04-25T06:03:12;4.90;99.90
57652;DHT22;43480;53.116;6.734;2023-04-25T06:05:43;5.00;99.90
57652;DHT22;43480;53.116;6.734;2023-04-25T06:08:09;5.10;99.90
57652;DHT22;43480;53.116;6.734;2023-04-25T06:10:36;5.20;99.90
57652;DHT22;43480;53.116;6.734;2023-04-25T06:13:02;5.20;99.90
57652;DHT22;43480;53.116;6.734;2023-04-25T06:15:28;5.30;99.90
57652;DHT22;43480;53.116;6.734;2023-04-25T06:17:55;5.30;99.90
57652;DHT22;43480;53.116;6.734;2023-04-25T06:20:21;5.40;99.90
57652;DHT22;43480;53.116;6.734;2023-04-25T06:22:49;5.50;99.90
57652;DHT22;43480;53.116;6.734;2023-04-25T06:25:15;5.70;99.90
57652;DHT22;43480;53.116;6.734;2023-04-25T06:27:41;5.80;99.90
57652;DHT22;43480;53.116;6.734;2023-04-25T06:30:07;5.80;99.90
57652;DHT22;43480;53.116;6.734;2023-04-25T06:32:33;5.90;99.90
57652;DHT22;43480;53.116;6.734;2023-04-25T06:35:00;6.00;99.90
57652;DHT22;43480;53.116;6.734;2023-04-25T06:37:25;6.10;99.90
57652;DHT22;43480;53.116;6.734;2023-04-25T06:39:51;6.10;99.90
57652;DHT22;43480;53.116;6.734;2023-04-25T06:42:17;6.00;99.90
57652;DHT22;43480;53.116;6.734;2023-04-25T06:44:42;6.00;99.90
57652;DHT22;43480;53.116;6.734;2023-04-25T06:47:08;6.00;99.90
57652;DHT22;43480;53.116;6.734;2023-04-25T06:49:34;6.00;99.90
57652;DHT22;43480;53.116;6.734;2023-04-25T06:51:59;6.10;99.90
57652;DHT22;43480;53.116;6.734;2023-04-25T06:54:25;6.30;99.90
57652;DHT22;43480;53.116;6.734;2023-04-25T06:56:55;6.40;99.90
57652;DHT22;43480;53.116;6.734;2023-04-25T06:59:21;6.50;99.90
57652;DHT22;43480;53.116;6.734;2023-04-25T07:01:46;6.60;99.90
57652;DHT22;43480;53.116;6.734;2023-04-25T07:04:12;6.80;99.90
57652;DHT22;43480;53.116;6.734;2023-04-25T07:06:37;7.10;99.90
57652;DHT22;43480;53.116;6.734;2023-04-25T07:09:08;7.20;99.90
57652;DHT22;43480;53.116;6.734;2023-04-25T07:11:35;7.20;99.90
57652;DHT22;43480;53.116;6.734;2023-04-25T07:14:01;7.00;99.90
57652;DHT22;43480;53.116;6.734;2023-04-25T07:16:27;6.80;99.90
57652;DHT22;43480;53.116;6.734;2023-04-25T07:18:53;6.70;99.90
57652;DHT22;43480;53.116;6.734;2023-04-25T07:21:18;6.60;99.90
57652;DHT22;43480;53.116;6.734;2023-04-25T07:23:44;6.60;99.90
57652;DHT22;43480;53.116;6.734;2023-04-25T07:26:10;6.70;99.90
57652;DHT22;43480;53.116;6.734;2023-04-25T07:28:35;6.70;99.90
57652;DHT22;43480;53.116;6.734;2023-04-25T07:31:01;6.80;99.90
57652;DHT22;43480;53.116;6.734;2023-04-25T07:33:27;6.90;99.90
57652;DHT22;43480;53.116;6.734;2023-04-25T07:35:53;7.10;99.90
57652;DHT22;43480;53.116;6.734;2023-04-25T07:38:19;7.20;99.90
57652;DHT22;43480;53.116;6.734;2023-04-25T07:40:44;7.30;99.90
57652;DHT22;43480;53.116;6.734;2023-04-25T07:43:10;7.30;99.90
57652;DHT22;43480;53.116;6.734;2023-04-25T07:45:39;7.40;99.90
57652;DHT22;43480;53.116;6.734;2023-04-25T07:48:05;7.50;99.90
57652;DHT22;43480;53.116;6.734;2023-04-25T07:50:31;7.60;99.90
57652;DHT22;43480;53.116;6.734;2023-04-25T07:52:56;7.60;99.90
57652;DHT22;43480;53.116;6.734;2023-04-25T07:55:22;7.70;99.90
57652;DHT22;43480;53.116;6.734;2023-04-25T07:57:47;7.80;99.90
57652;DHT22;43480;53.116;6.734;2023-04-25T08:00:13;7.90;99.90
57652;DHT22;43480;53.116;6.734;2023-04-25T08:02:40;7.90;99.90
57652;DHT22;43480;53.116;6.734;2023-04-25T08:05:06;7.90;99.90
57652;DHT22;43480;53.116;6.734;2023-04-25T08:07:33;7.80;99.90
57652;DHT22;43480;53.116;6.734;2023-04-25T08:10:00;7.80;99.90
57652;DHT22;43480;53.116;6.734;2023-04-25T08:12:26;7.80;99.90
57652;DHT22;43480;53.116;6.734;2023-04-25T08:14:51;7.70;99.90
57652;DHT22;43480;53.116;6.734;2023-04-25T08:17:17;7.60;99.90
57652;DHT22;43480;53.116;6.734;2023-04-25T08:19:42;7.50;99.90
57652;DHT22;43480;53.116;6.734;2023-04-25T08:22:08;7.50;99.90
57652;DHT22;43480;53.116;6.734;2023-04-25T08:24:34;7.80;99.90
57652;DHT22;43480;53.116;6.734;2023-04-25T08:26:59;7.90;99.90
57652;DHT22;43480;53.116;6.734;2023-04-25T08:29:26;7.90;99.90
57652;DHT22;43480;53.116;6.734;2023-04-25T08:31:51;8.00;99.90
57652;DHT22;43480;53.116;6.734;2023-04-25T08:34:18;8.10;99.90
57652;DHT22;43480;53.116;6.734;2023-04-25T08:36:45;7.70;99.90
57652;DHT22;43480;53.116;6.734;2023-04-25T08:39:11;7.20;99.90
57652;DHT22;43480;53.116;6.734;2023-04-25T08:41:37;6.80;99.90
57652;DHT22;43480;53.116;6.734;2023-04-25T08:44:03;6.60;99.90
57652;DHT22;43480;53.116;6.734;2023-04-25T08:46:30;6.40;99.90
57652;DHT22;43480;53.116;6.734;2023-04-25T08:49:01;6.60;99.90
57652;DHT22;43480;53.116;6.734;2023-04-25T08:51:31;6.80;99.90
57652;DHT22;43480;53.116;6.734;2023-04-25T08:54:10;7.00;99.90
57652;DHT22;43480;53.116;6.734;2023-04-25T08:56:38;7.10;99.90
57652;DHT22;43480;53.116;6.734;2023-04-25T08:59:06;7.10;99.90
57652;DHT22;43480;53.116;6.734;2023-04-25T09:01:34;7.20;99.90
57652;DHT22;43480;53.116;6.734;2023-04-25T09:04:01;7.30;99.90
57652;DHT22;43480;53.116;6.734;2023-04-25T09:06:29;7.40;99.90
57652;DHT22;43480;53.116;6.734;2023-04-25T09:09:04;7.50;99.90
57652;DHT22;43480;53.116;6.734;2023-04-25T09:11:34;7.70;99.90
57652;DHT22;43480;53.116;6.734;2023-04-25T09:14:21;7.90;99.90
57652;DHT22;43480;53.116;6.734;2023-04-25T09:17:07;7.90;99.90
57652;DHT22;43480;53.116;6.734;2023-04-25T09:19:35;7.80;99.90
57652;DHT22;43480;53.116;6.734;2023-04-25T09:22:03;7.80;99.90
57652;DHT22;43480;53.116;6.734;2023-04-25T09:24:40;8.00;99.90
57652;DHT22;43480;53.116;6.734;2023-04-25T09:27:11;8.20;99.90
57652;DHT22;43480;53.116;6.734;2023-04-25T09:29:41;8.30;99.90
57652;DHT22;43480;53.116;6.734;2023-04-25T09:32:17;8.40;99.90
57652;DHT22;43480;53.116;6.734;2023-04-25T09:34:46;8.60;99.90
57652;DHT22;43480;53.116;6.734;2023-04-25T09:37:17;8.80;99.90
57652;DHT22;43480;53.116;6.734;2023-04-25T09:39:45;8.90;99.90
57652;DHT22;43480;53.116;6.734;2023-04-25T09:42:14;9.00;99.90
57652;DHT22;43480;53.116;6.734;2023-04-25T09:44:44;9.00;99.90
57652;DHT22;43480;53.116;6.734;2023-04-25T09:47:11;9.20;99.90
57652;DHT22;43480;53.116;6.734;2023-04-25T09:49:42;9.40;99.90
57652;DHT22;43480;53.116;6.734;2023-04-25T09:52:08;9.40;99.90
57652;DHT22;43480;53.116;6.734;2023-04-25T09:54:34;8.90;99.90
57652;DHT22;43480;53.116;6.734;2023-04-25T09:57:11;7.50;99.90
57652;DHT22;43480;53.116;6.734;2023-04-25T09:59:39;6.50;99.90
57652;DHT22;43480;53.116;6.734;2023-04-25T10:02:08;6.20;99.90
57652;DHT22;43480;53.116;6.734;2023-04-25T10:04:35;6.20;99.90
57652;DHT22;43480;53.116;6.734;2023-04-25T10:07:04;6.50;99.90
57652;DHT22;43480;53.116;6.734;2023-04-25T10:09:31;7.00;99.90
57652;DHT22;43480;53.116;6.734;2023-04-25T10:11:59;7.40;99.90
57652;DHT22;43480;53.116;6.734;2023-04-25T10:14:26;7.90;99.90
57652;DHT22;43480;53.116;6.734;2023-04-25T10:16:52;8.40;99.90
57652;DHT22;43480;53.116;6.734;2023-04-25T10:19:20;8.70;99.90
57652;DHT22;43480;53.116;6.734;2023-04-25T10:22:03;8.80;99.90
57652;DHT22;43480;53.116;6.734;2023-04-25T10:24:30;8.80;99.90
57652;DHT22;43480;53.116;6.734;2023-04-25T10:26:56;8.90;99.90
57652;DHT22;43480;53.116;6.734;2023-04-25T10:29:24;9.10;99.90
57652;DHT22;43480;53.116;6.734;2023-04-25T10:31:50;9.10;99.90
57652;DHT22;43480;53.116;6.734;2023-04-25T10:34:17;9.10;99.90
57652;DHT22;43480;53.116;6.734;2023-04-25T10:36:42;9.10;99.90
57652;DHT22;43480;53.116;6.734;2023-04-25T10:39:08;9.00;99.90
57652;DHT22;43480;53.116;6.734;2023-04-25T10:41:48;8.70;99.90
57652;DHT22;43480;53.116;6.734;2023-04-25T10:44:17;8.40;99.90
57652;DHT22;43480;53.116;6.734;2023-04-25T10:46:44;8.10;99.90
57652;DHT22;43480;53.116;6.734;2023-04-25T10:49:11;7.90;99.90
57652;DHT22;43480;53.116;6.734;2023-04-25T10:54:56;7.60;99.90
57652;DHT22;43480;53.116;6.734;2023-04-25T11:00:04;8.20;99.90
57652;DHT22;43480;53.116;6.734;2023-04-25T11:02:31;8.60;99.90
57652;DHT22;43480;53.116;6.734;2023-04-25T11:04:57;8.70;99.90
57652;DHT22;43480;53.116;6.734;2023-04-25T11:07:49;8.90;99.90
57652;DHT22;43480;53.116;6.734;2023-04-25T11:10:16;9.20;99.90
57652;DHT22;43480;53.116;6.734;2023-04-25T11:12:41;8.80;99.90
57652;DHT22;43480;53.116;6.734;2023-04-25T11:15:08;8.20;99.90
57652;DHT22;43480;53.116;6.734;2023-04-25T11:17:34;7.80;99.90
57652;DHT22;43480;53.116;6.734;2023-04-25T11:20:00;7.70;99.90
57652;DHT22;43480;53.116;6.734;2023-04-25T11:22:27;8.00;99.90
57652;DHT22;43480;53.116;6.734;2023-04-25T11:24:53;8.40;99.90
57652;DHT22;43480;53.116;6.734;2023-04-25T11:27:19;8.70;99.90
57652;DHT22;43480;53.116;6.734;2023-04-25T11:29:46;9.00;99.90
57652;DHT22;43480;53.116;6.734;2023-04-25T11:32:15;9.20;99.90
57652;DHT22;43480;53.116;6.734;2023-04-25T11:34:43;9.40;99.90
57652;DHT22;43480;53.116;6.734;2023-04-25T11:37:09;9.70;99.90
57652;DHT22;43480;53.116;6.734;2023-04-25T11:39:37;9.60;99.90
57652;DHT22;43480;53.116;6.734;2023-04-25T11:42:04;9.80;99.90
57652;DHT22;43480;53.116;6.734;2023-04-25T11:44:30;10.20;99.90
57652;DHT22;43480;53.116;6.734;2023-04-25T11:46:55;10.50;99.90
57652;DHT22;43480;53.116;6.734;2023-04-25T11:49:21;10.40;99.90
57652;DHT22;43480;53.116;6.734;2023-04-25T11:51:48;10.40;99.90
57652;DHT22;43480;53.116;6.734;2023-04-25T11:54:14;10.50;99.90
57652;DHT22;43480;53.116;6.734;2023-04-25T11:56:44;10.60;99.90
57652;DHT22;43480;53.116;6.734;2023-04-25T11:59:09;10.70;99.90
57652;DHT22;43480;53.116;6.734;2023-04-25T12:01:38;10.80;99.90
57652;DHT22;43480;53.116;6.734;2023-04-25T12:04:23;10.90;99.90
57652;DHT22;43480;53.116;6.734;2023-04-25T12:06:52;10.80;99.90
57652;DHT22;43480;53.116;6.734;2023-04-25T12:09:20;11.00;99.90
57652;DHT22;43480;53.116;6.734;2023-04-25T12:11:54;10.90;99.90
57652;DHT22;43480;53.116;6.734;2023-04-25T12:14:22;10.80;99.90
57652;DHT22;43480;53.116;6.734;2023-04-25T12:16:49;11.00;99.90
57652;DHT22;43480;53.116;6.734;2023-04-25T12:19:17;10.90;99.90
57652;DHT22;43480;53.116;6.734;2023-04-25T12:21:44;10.40;99.90
57652;DHT22;43480;53.116;6.734;2023-04-25T12:24:15;9.90;99.90
57652;DHT22;43480;53.116;6.734;2023-04-25T12:29:17;9.60;99.90
57652;DHT22;43480;53.116;6.734;2023-04-25T12:31:43;9.30;99.90
57652;DHT22;43480;53.116;6.734;2023-04-25T12:34:09;9.10;99.90
57652;DHT22;43480;53.116;6.734;2023-04-25T12:36:34;9.10;99.90
57652;DHT22;43480;53.116;6.734;2023-04-25T12:39:00;8.90;99.90
57652;DHT22;43480;53.116;6.734;2023-04-25T12:41:29;9.00;99.90
57652;DHT22;43480;53.116;6.734;2023-04-25T12:43:55;9.10;99.90
57652;DHT22;43480;53.116;6.734;2023-04-25T12:46:21;9.40;99.90
57652;DHT22;43480;53.116;6.734;2023-04-25T12:48:48;9.70;99.90
57652;DHT22;43480;53.116;6.734;2023-04-25T12:51:14;9.70;99.90
57652;DHT22;43480;53.116;6.734;2023-04-25T12:53:40;9.50;99.90
57652;DHT22;43480;53.116;6.734;2023-04-25T12:56:07;9.40;99.90
57652;DHT22;43480;53.116;6.734;2023-04-25T12:58:33;9.30;99.90
57652;DHT22;43480;53.116;6.734;2023-04-25T13:00:59;9.30;99.90
57652;DHT22;43480;53.116;6.734;2023-04-25T13:03:25;9.20;99.90
57652;DHT22;43480;53.116;6.734;2023-04-25T13:05:51;9.40;99.90
57652;DHT22;43480;53.116;6.734;2023-04-25T13:08:18;10.00;99.90
57652;DHT22;43480;53.116;6.734;2023-04-25T13:10:44;10.40;99.90
57652;DHT22;43480;53.116;6.734;2023-04-25T13:13:10;11.00;99.90
57652;DHT22;43480;53.116;6.734;2023-04-25T13:15:36;11.20;95.30
57652;DHT22;43480;53.116;6.734;2023-04-25T13:18:03;11.40;99.90
57652;DHT22;43480;53.116;6.734;2023-04-25T13:20:29;11.60;99.90
57652;DHT22;43480;53.116;6.734;2023-04-25T13:22:55;11.30;99.90
57652;DHT22;43480;53.116;6.734;2023-04-25T13:25:20;11.30;99.90
57652;DHT22;43480;53.116;6.734;2023-04-25T13:27:47;11.60;99.90
57652;DHT22;43480;53.116;6.734;2023-04-25T13:30:13;11.80;99.90
57652;DHT22;43480;53.116;6.734;2023-04-25T13:32:39;12.00;99.90
57652;DHT22;43480;53.116;6.734;2023-04-25T13:35:10;11.50;99.80
57652;DHT22;43480;53.116;6.734;2023-04-25T13:37:36;10.60;99.60
57652;DHT22;43480;53.116;6.734;2023-04-25T13:40:04;9.90;99.90
57652;DHT22;43480;53.116;6.734;2023-04-25T13:42:31;9.40;99.90
57652;DHT22;43480;53.116;6.734;2023-04-25T13:44:56;9.10;99.90
57652;DHT22;43480;53.116;6.734;2023-04-25T13:47:22;9.10;99.90
57652;DHT22;43480;53.116;6.734;2023-04-25T13:49:49;9.30;99.90
57652;DHT22;43480;53.116;6.734;2023-04-25T13:52:14;10.00;99.90
57652;DHT22;43480;53.116;6.734;2023-04-25T13:54:40;10.70;99.90
57652;DHT22;43480;53.116;6.734;2023-04-25T13:57:06;11.00;99.90
57652;DHT22;43480;53.116;6.734;2023-04-25T13:59:32;10.70;99.90
57652;DHT22;43480;53.116;6.734;2023-04-25T14:01:58;10.30;99.90
57652;DHT22;43480;53.116;6.734;2023-04-25T14:04:23;10.30;99.90
57652;DHT22;43480;53.116;6.734;2023-04-25T14:06:50;10.60;99.90
57652;DHT22;43480;53.116;6.734;2023-04-25T14:09:17;10.50;99.90
57652;DHT22;43480;53.116;6.734;2023-04-25T14:11:42;10.30;99.90
57652;DHT22;43480;53.116;6.734;2023-04-25T14:14:08;10.60;99.90
57652;DHT22;43480;53.116;6.734;2023-04-25T14:16:34;11.10;99.40
57652;DHT22;43480;53.116;6.734;2023-04-25T14:19:00;11.50;99.90
57652;DHT22;43480;53.116;6.734;2023-04-25T14:21:27;11.40;92.70
57652;DHT22;43480;53.116;6.734;2023-04-25T14:23:53;11.20;87.30
57652;DHT22;43480;53.116;6.734;2023-04-25T14:26:19;11.10;97.50
57652;DHT22;43480;53.116;6.734;2023-04-25T14:28:45;10.60;97.60
57652;DHT22;43480;53.116;6.734;2023-04-25T14:31:11;10.10;99.90
57652;DHT22;43480;53.116;6.734;2023-04-25T14:33:36;10.00;99.90
57652;DHT22;43480;53.116;6.734;2023-04-25T14:36:05;10.40;99.90
57652;DHT22;43480;53.116;6.734;2023-04-25T14:38:31;10.90;99.90
57652;DHT22;43480;53.116;6.734;2023-04-25T14:40:56;10.60;99.90
57652;DHT22;43480;53.116;6.734;2023-04-25T14:43:22;10.00;99.90
57652;DHT22;43480;53.116;6.734;2023-04-25T14:45:48;9.70;99.90
57652;DHT22;43480;53.116;6.734;2023-04-25T14:48:13;9.50;99.90
57652;DHT22;43480;53.116;6.734;2023-04-25T14:50:39;10.10;99.90
57652;DHT22;43480;53.116;6.734;2023-04-25T14:53:04;10.80;99.90
57652;DHT22;43480;53.116;6.734;2023-04-25T14:55:31;11.70;99.90
57652;DHT22;43480;53.116;6.734;2023-04-25T14:57:56;12.00;85.10
57652;DHT22;43480;53.116;6.734;2023-04-25T15:00:22;12.00;90.60
57652;DHT22;43480;53.116;6.734;2023-04-25T15:02:51;12.20;90.70
57652;DHT22;43480;53.116;6.734;2023-04-25T15:05:17;12.20;91.30
57652;DHT22;43480;53.116;6.734;2023-04-25T15:07:43;11.60;86.60
57652;DHT22;43480;53.116;6.734;2023-04-25T15:10:09;10.70;99.90
57652;DHT22;43480;53.116;6.734;2023-04-25T15:12:42;10.10;99.90
57652;DHT22;43480;53.116;6.734;2023-04-25T15:15:09;9.80;99.90
57652;DHT22;43480;53.116;6.734;2023-04-25T15:17:40;9.50;99.90
57652;DHT22;43480;53.116;6.734;2023-04-25T15:20:08;9.30;99.90
57652;DHT22;43480;53.116;6.734;2023-04-25T15:22:36;9.10;99.90
57652;DHT22;43480;53.116;6.734;2023-04-25T15:25:02;9.20;99.90
57652;DHT22;43480;53.116;6.734;2023-04-25T15:27:28;9.60;99.90
57652;DHT22;43480;53.116;6.734;2023-04-25T15:29:54;10.20;99.90
57652;DHT22;43480;53.116;6.734;2023-04-25T15:32:19;11.10;99.90
57652;DHT22;43480;53.116;6.734;2023-04-25T15:34:46;11.80;99.90
57652;DHT22;43480;53.116;6.734;2023-04-25T15:37:11;12.50;97.90
57652;DHT22;43480;53.116;6.734;2023-04-25T15:39:37;12.40;87.80
57652;DHT22;43480;53.116;6.734;2023-04-25T15:42:03;11.70;90.10
57652;DHT22;43480;53.116;6.734;2023-04-25T15:44:28;11.60;99.90
57652;DHT22;43480;53.116;6.734;2023-04-25T15:46:54;11.70;85.20